ADDS METAR Data INFO
IDs: Format: Raw Decoded Include TAF

Data at: 0214 UTC 14 Dec 2017

KHVR 140153Z AUTO 27008KT 10SM CLR 02/M04 A3025 RMK AO2 SLP273 T00171044
KHVR 140053Z AUTO 23014KT 10SM CLR 02/M04 A3023 RMK AO2 SLP268 T00171044
KHVR 132353Z AUTO 22012KT 10SM BKN070 02/M04 A3022 RMK AO2 SLP262 T00221044 10044 20000 53008
KHVR 132253Z AUTO 22014KT 10SM BKN070 03/M05 A3021 RMK AO2 SLP257 T00281050
KHVR 132153Z AUTO 22015KT 10SM CLR 03/M05 A3019 RMK AO2 SLP249 T00281050
KHVR 132053Z AUTO 23012KT 10SM FEW095 03/M04 A3020 RMK AO2 SLP251 T00331044 58011
KHVR 131953Z AUTO 22011KT 10SM BKN095 03/M04 A3021 RMK AO2 SLP255 T00281044
KHVR 131853Z AUTO 23009KT 10SM CLR 02/M05 A3022 RMK AO2 SLP261 T00221050
KHVR 131753Z AUTO 22011KT 10SM CLR 00/M06 A3023 RMK AO2 SLP265 T00001061 10000 21044 51010
KHVR 131653Z AUTO 22012KT 10SM CLR M01/M06 A3022 RMK AO2 SLP259 T10111061
KHVR 131553Z AUTO 23009KT 10SM CLR M03/M07 A3022 RMK AO2 SLP261 T10331072
KHVR 131453Z AUTO 22011KT 10SM CLR M04/M08 A3020 RMK AO2 SLP252 T10391078 58004
KHVR 131353Z AUTO 23012KT 10SM CLR M04/M08 A3021 RMK AO2 SLP254 T10391078
KHVR 131253Z AUTO 22010KT 10SM CLR M04/M08 A3021 RMK AO2 SLP253 T10391078
KHVR 131153Z AUTO 24011KT 10SM CLR M02/M07 A3021 RMK AO2 SLP249 T10221072 10006 21033 53005
KHVR 131053Z AUTO 22011KT 10SM CLR M02/M07 A3021 RMK AO2 SLP246 T10221072
KHVR 130953Z AUTO 25010KT 10SM CLR M01/M06 A3020 RMK AO2 SLP241 T10111061
KHVR 130853Z AUTO 23009KT 10SM CLR M03/M07 A3019 RMK AO2 SLP239 T10281072 53008
KHVR 130753Z AUTO 30008KT 10SM CLR 00/M07 A3018 RMK AO2 SLP235 T00001072
KHVR 130653Z AUTO 27010KT 10SM CLR M01/M08 A3017 RMK AO2 SLP233 T10111083 401441039
KHVR 130553Z AUTO 26009KT 10SM CLR 00/M08 A3017 RMK AO2 SLP232 T00001083 10106 20000 51018
KHVR 130453Z AUTO 24009KT 10SM CLR 02/M09 A3016 RMK AO2 SLP233 T00171094
KHVR 130353Z AUTO 27009KT 10SM CLR 02/M10 A3015 RMK AO2 SLP231 T00221100
KHVR 130253Z AUTO 29010KT 10SM CLR 04/M11 A3011 RMK AO2 SLP219 T00441106 53011
KHVR 130153Z AUTO 29011KT 10SM OVC110 08/M11 A3009 RMK AO2 SLP209 T00781111
KHVR 130053Z AUTO 23008KT 10SM OVC110 08/M12 A3008 RMK AO2 SLP206 T00781117
KHVR 122353Z AUTO 29008KT 10SM OVC110 11/M12 A3007 RMK AO2 SLP199 T01061122 10144 20094 51019
KHVR 122253Z AUTO 29014KT 10SM CLR 12/M13 A3006 RMK AO2 SLP192 T01171133
KHVR 122153Z AUTO 26018KT 10SM CLR 12/M14 A3004 RMK AO2 PK WND 26030/2106 SLP187 T01221139
KHVR 122053Z AUTO 26024G31KT 10SM CLR 14/M14 A3002 RMK AO2 PK WND 25031/1957 SLP176 T01441139 55003
KHVR 121953Z AUTO 25021G29KT 10SM CLR 13/M14 A3001 RMK AO2 PK WND 24036/1911 SLP178 T01331139
KHVR 121853Z AUTO 24024G32KT 10SM CLR 12/M13 A3000 RMK AO2 PK WND 23033/1828 SLP175 T01221133
KHVR 121753Z AUTO 23022G31KT 10SM CLR 10/M13 A3003 RMK AO2 PK WND 22033/1739 SLP187 T01001133 10100 21017 58010
KHVR 121653Z AUTO 23021KT 10SM CLR 07/M12 A3006 RMK AO2 SLP202 T00671117
KHVR 121553Z AUTO 24017KT 10SM CLR 03/M11 A3006 RMK AO2 SLP209 T00331106
KHVR 121453Z AUTO 23013KT 10SM CLR 00/M11 A3006 RMK AO2 SLP211 T00001106 58024